Butgenbach, Belgium
Current Conditions -  °F | °C
As of 2:48 AM on Saturday 20 Dec 2014 (Local Time) from EBLB Reporting Station
Scattered Clouds Scattered Clouds  
Wind Chill: 26°   Ceiling: Unl
Heat Index: 34°   Visibility: 6mi
Dew Point: 32°   Wind: 9mph
Humidity: 93%   Direction: 260°W
Pressure: 30.18"   Gusts: NA
Location:  50.43°N, 6.21°E
Report Text: EBLB 200148Z AUTO 26008KT 9999 FEW008/// SCT011/// 01/00 Q1022 GRN
Loading
Personal Weather Stations






























Interactive Weather Map New forecast layout! Learn more

10-Day Weather Forecast

Advertisements
Track Severe Weather on mobile